Fallon Colony, Nevada
Current Conditions -  °F | °C
As of 12:56 PM on Friday 31 Oct 2014 (Local Time) from KNFL Reporting Station
Scattered Clouds Scattered Clouds  
Wind Chill: 23°   Ceiling: Unl
Heat Index: 23°   Visibility: 10mi
Dew Point: -7°   Wind: 10mph
Humidity: 13%   Direction: 190°S
Pressure: 29.76"   Gusts: NA
Location:  39.5809°N, 118.333°W
Report Text: KNFL 311956Z 19009KT 10SM FEW060 FEW080 SCT130 SCT220 23/M07 A2976 RMK AO2 SLP058 ACSL DSNT ALQDS T02281072
Loading
Personal Weather Stations






























Interactive Weather Map
Tropical Storm Tracking
New forecast layout! Learn more

10-Day Weather Forecast

Advertisements
Track Severe Weather on mobile